createdAt,value
2023-05-02T00:01:29.864Z,2.84
2023-05-02T00:03:58.066Z,2.79
2023-05-02T00:06:26.764Z,2.73
2023-05-02T00:08:54.969Z,2.68
2023-05-02T00:11:24.568Z,2.64
2023-05-02T00:13:52.718Z,2.58
2023-05-02T00:16:21.717Z,2.53
2023-05-02T00:18:49.995Z,2.50
2023-05-02T00:21:18.167Z,2.45
2023-05-02T00:23:46.328Z,2.41
2023-05-02T00:26:14.538Z,2.37
2023-05-02T00:28:42.890Z,2.34
2023-05-02T00:31:11.077Z,2.30
2023-05-02T00:33:39.396Z,2.28
2023-05-02T00:36:17.279Z,2.25
2023-05-02T00:38:46.091Z,2.22
2023-05-02T00:41:14.330Z,2.19
2023-05-02T00:43:42.670Z,2.16
2023-05-02T00:46:12.976Z,2.13
2023-05-02T00:48:41.205Z,2.10
2023-05-02T00:51:12.242Z,2.08
2023-05-02T00:53:40.747Z,2.05
2023-05-02T00:56:09.894Z,2.02
2023-05-02T00:58:39.476Z,1.99
2023-05-02T01:01:19.772Z,1.96
2023-05-02T01:03:51.132Z,1.95
2023-05-02T01:06:38.162Z,1.96
2023-05-02T01:09:24.859Z,2.02
2023-05-02T01:11:57.101Z,2.09
2023-05-02T01:14:26.306Z,2.16
2023-05-02T01:16:56.797Z,2.23
2023-05-02T01:19:42.118Z,2.28
2023-05-02T01:22:11.382Z,2.29
2023-05-02T01:24:43.438Z,2.29
2023-05-02T01:27:11.543Z,2.29
2023-05-02T01:29:40.433Z,2.27
2023-05-02T01:32:09.392Z,2.24
2023-05-02T01:34:38.973Z,2.17
2023-05-02T01:37:10.576Z,2.11
2023-05-02T01:39:40.397Z,2.04
2023-05-02T01:42:09.534Z,1.98
2023-05-02T01:44:38.462Z,1.90
2023-05-02T01:47:08.027Z,1.82
2023-05-02T01:49:37.675Z,1.75
2023-05-02T01:52:08.556Z,1.71
2023-05-02T01:54:37.251Z,1.66
2023-05-02T01:57:06.286Z,1.62
2023-05-02T01:59:35.706Z,1.58
2023-05-02T02:02:04.850Z,1.53
2023-05-02T02:04:35.591Z,1.50
2023-05-02T02:07:06.564Z,1.46
2023-05-02T02:09:35.169Z,1.44
2023-05-02T02:12:04.414Z,1.42
2023-05-02T02:14:52.834Z,1.40
2023-05-02T02:17:30.343Z,1.37
2023-05-02T02:20:01.849Z,1.34
2023-05-02T02:22:30.878Z,1.34
2023-05-02T02:24:59.702Z,1.34
2023-05-02T02:27:28.397Z,1.38
2023-05-02T02:29:56.627Z,1.43
2023-05-02T02:32:24.861Z,1.49
2023-05-02T02:34:53.099Z,1.56
2023-05-02T02:37:26.702Z,1.60
2023-05-02T02:40:05.004Z,1.66
2023-05-02T02:42:39.582Z,1.70
2023-05-02T02:45:11.020Z,1.70
2023-05-02T02:48:01.212Z,1.71
2023-05-02T02:50:43.921Z,1.70
2023-05-02T02:53:18.830Z,1.67
2023-05-02T02:55:52.866Z,1.63
2023-05-02T02:58:20.989Z,1.59
2023-05-02T03:00:49.993Z,1.54
2023-05-02T03:03:19.164Z,1.48
2023-05-02T03:05:47.894Z,1.42
2023-05-02T03:08:16.438Z,1.37
2023-05-02T03:10:44.621Z,1.32
2023-05-02T03:13:12.914Z,1.30
2023-05-02T03:15:54.106Z,1.31
2023-05-02T03:18:26.437Z,1.27
2023-05-02T03:20:55.299Z,1.24
2023-05-02T03:23:23.638Z,1.25
2023-05-02T03:25:53.059Z,1.30
2023-05-02T03:28:21.811Z,1.37
2023-05-02T03:30:50.480Z,1.44
2023-05-02T03:33:18.947Z,1.53
2023-05-02T03:35:47.317Z,1.63
2023-05-02T03:38:15.807Z,1.74
2023-05-02T03:40:45.737Z,1.85
2023-05-02T03:43:14.059Z,1.94
2023-05-02T03:45:42.275Z,2.05
2023-05-02T03:48:10.508Z,2.13
2023-05-02T03:50:38.811Z,2.17
2023-05-02T03:53:08.505Z,2.23
2023-05-02T03:55:41.230Z,2.24
2023-05-02T03:58:10.792Z,2.24
2023-05-02T04:00:39.646Z,2.26
2023-05-02T04:03:08.993Z,2.37
2023-05-02T04:05:41.092Z,2.51
2023-05-02T04:08:10.625Z,2.65
2023-05-02T04:10:39.034Z,2.77
2023-05-02T04:13:09.953Z,2.87
2023-05-02T04:15:40.827Z,3.04
2023-05-02T04:18:09.231Z,3.16
2023-05-02T04:20:38.348Z,3.30
2023-05-02T04:23:06.651Z,3.44
2023-05-02T04:25:35.195Z,3.62
2023-05-02T04:28:05.985Z,3.79
2023-05-02T04:30:34.192Z,3.89
2023-05-02T04:33:07.569Z,4.01
2023-05-02T04:35:39.884Z,4.13
2023-05-02T04:38:08.715Z,4.20
2023-05-02T04:40:37.246Z,4.20
2023-05-02T04:43:07.666Z,4.21
2023-05-02T04:45:46.794Z,4.25
2023-05-02T04:48:22.747Z,4.37
2023-05-02T04:50:51.179Z,4.61
2023-05-02T04:53:20.208Z,4.96
2023-05-02T04:55:49.060Z,5.34
2023-05-02T04:58:17.754Z,5.83
2023-05-02T05:00:49.488Z,6.50
2023-05-02T05:03:17.835Z,7.15
2023-05-02T05:05:46.176Z,7.83
2023-05-02T05:08:16.744Z,8.44
2023-05-02T05:10:45.140Z,9.05
2023-05-02T05:13:14.157Z,9.71
2023-05-02T05:15:44.814Z,10.36
2023-05-02T05:18:13.708Z,10.92
2023-05-02T05:20:41.868Z,11.47
2023-05-02T05:23:10.369Z,12.05
2023-05-02T05:25:40.540Z,12.55
2023-05-02T05:28:09.557Z,13.13
2023-05-02T05:30:38.961Z,13.66
2023-05-02T05:33:10.186Z,13.98
2023-05-02T05:35:38.328Z,14.46
2023-05-02T05:38:07.109Z,14.98
2023-05-02T05:40:37.612Z,15.39
2023-05-02T05:43:06.763Z,15.65
2023-05-02T05:45:37.887Z,16.14
2023-05-02T05:48:06.731Z,16.38
2023-05-02T05:50:40.466Z,16.58
2023-05-02T05:53:08.553Z,16.99
2023-05-02T05:55:39.636Z,16.94
2023-05-02T05:58:09.950Z,17.25
2023-05-02T06:00:39.758Z,17.70
2023-05-02T06:03:09.942Z,17.94
2023-05-02T06:05:38.635Z,18.34
2023-05-02T06:08:06.753Z,18.62
2023-05-02T06:10:34.894Z,18.84
2023-05-02T06:13:03.374Z,19.39
2023-05-02T06:15:35.405Z,19.45
2023-05-02T06:18:05.232Z,19.64
2023-05-02T06:20:33.363Z,19.90
2023-05-02T06:23:01.471Z,19.86
2023-05-02T06:25:29.664Z,19.60
2023-05-02T06:27:57.746Z,20.03
2023-05-02T06:30:25.893Z,20.25
2023-05-02T06:32:54.005Z,20.26
2023-05-02T06:35:22.211Z,20.38
2023-05-02T06:37:50.288Z,20.81
2023-05-02T06:40:18.446Z,21.26
2023-05-02T06:42:46.565Z,21.12
2023-05-02T06:45:14.846Z,21.38
2023-05-02T06:47:43.298Z,21.61
2023-05-02T06:50:11.716Z,22.05
2023-05-02T06:52:39.855Z,22.20
2023-05-02T06:55:08.240Z,22.23
2023-05-02T06:57:36.443Z,22.54
2023-05-02T07:00:05.010Z,22.65
2023-05-02T07:02:33.178Z,22.63
2023-05-02T07:05:01.428Z,22.46
2023-05-02T07:07:29.415Z,22.78
2023-05-02T07:09:57.571Z,22.66
2023-05-02T07:12:26.473Z,22.62
2023-05-02T07:14:54.623Z,22.41
2023-05-02T07:17:23.285Z,22.63
2023-05-02T07:19:51.622Z,22.68
2023-05-02T07:22:19.949Z,22.69
2023-05-02T07:24:48.126Z,23.17
2023-05-02T07:27:16.259Z,23.17
2023-05-02T07:29:44.350Z,23.39
2023-05-02T07:32:12.504Z,23.53
2023-05-02T07:34:40.736Z,23.71
2023-05-02T07:37:08.847Z,23.97
2023-05-02T07:39:36.945Z,24.13
2023-05-02T07:42:05.122Z,23.89
2023-05-02T07:44:35.154Z,23.70
2023-05-02T07:47:03.354Z,24.15
2023-05-02T07:49:31.605Z,23.75
2023-05-02T07:51:59.777Z,23.70
2023-05-02T07:54:27.951Z,23.58
2023-05-02T07:56:58.350Z,23.54
2023-05-02T07:59:26.537Z,23.00
2023-05-02T08:01:54.749Z,23.34
2023-05-02T08:04:22.971Z,24.13
2023-05-02T08:06:51.181Z,24.30
2023-05-02T08:09:19.281Z,24.31
2023-05-02T08:11:47.388Z,24.40
2023-05-02T08:14:16.198Z,24.89
2023-05-02T08:16:46.241Z,24.55
2023-05-02T08:19:15.455Z,24.81
2023-05-02T08:21:43.697Z,24.17
2023-05-02T08:24:12.002Z,24.61
2023-05-02T08:26:40.152Z,24.37
2023-05-02T08:29:08.319Z,25.09
2023-05-02T08:31:36.719Z,24.77
2023-05-02T08:34:05.950Z,25.16
2023-05-02T08:36:34.124Z,25.16
2023-05-02T08:39:02.190Z,25.02
2023-05-02T08:41:31.355Z,25.07
2023-05-02T08:44:00.031Z,25.17
2023-05-02T08:46:28.727Z,25.35
2023-05-02T08:48:59.269Z,25.46
2023-05-02T08:51:29.361Z,25.61
2023-05-02T08:53:58.576Z,25.24
2023-05-02T08:56:26.810Z,25.59
2023-05-02T08:58:54.834Z,25.32
2023-05-02T09:01:23.782Z,25.65
2023-05-02T09:03:52.500Z,25.46
2023-05-02T09:06:22.023Z,25.41
2023-05-02T09:08:53.196Z,25.44
2023-05-02T09:11:21.752Z,25.41
2023-05-02T09:13:51.499Z,25.40
2023-05-02T09:16:22.987Z,25.57
2023-05-02T09:19:00.067Z,25.41
2023-05-02T09:21:46.771Z,25.17
2023-05-02T09:24:18.524Z,24.76
2023-05-02T09:26:59.021Z,24.79
2023-05-02T09:29:28.965Z,24.61
2023-05-02T09:31:57.349Z,24.76
2023-05-02T09:34:25.825Z,24.65
2023-05-02T09:36:54.762Z,24.47
2023-05-02T09:39:29.157Z,24.47
2023-05-02T09:41:57.839Z,24.23
2023-05-02T09:44:27.220Z,23.58
2023-05-02T09:46:56.413Z,23.69
2023-05-02T09:49:39.810Z,23.54
2023-05-02T09:52:12.080Z,23.54
2023-05-02T09:54:40.440Z,23.62
2023-05-02T09:57:08.870Z,23.45
2023-05-02T09:59:37.129Z,23.07
2023-05-02T10:02:07.486Z,22.82
2023-05-02T10:04:36.328Z,22.80
2023-05-02T10:07:06.726Z,22.58
2023-05-02T10:09:36.078Z,22.49
2023-05-02T10:12:05.354Z,22.53
2023-05-02T10:14:39.686Z,22.21
2023-05-02T10:17:22.263Z,21.92
2023-05-02T10:20:06.622Z,22.07
2023-05-02T10:22:36.320Z,22.17
2023-05-02T10:25:04.923Z,22.19
2023-05-02T10:27:33.391Z,22.08
2023-05-02T10:30:04.224Z,21.83
2023-05-02T10:32:37.134Z,21.90
2023-05-02T10:35:06.590Z,22.05
2023-05-02T10:37:36.444Z,22.01
2023-05-02T10:40:06.421Z,22.16
2023-05-02T10:42:39.348Z,22.28
2023-05-02T10:45:30.942Z,22.36
2023-05-02T10:48:17.305Z,22.20
2023-05-02T10:50:47.587Z,22.09
2023-05-02T10:53:30.789Z,22.02
2023-05-02T10:56:17.641Z,22.00
2023-05-02T10:58:46.453Z,22.14
2023-05-02T11:01:27.358Z,22.23
2023-05-02T11:03:59.322Z,21.97
2023-05-02T11:06:28.638Z,22.16
2023-05-02T11:09:15.508Z,22.57
2023-05-02T11:11:44.344Z,22.88
2023-05-02T11:14:14.049Z,22.69
2023-05-02T11:16:58.978Z,22.48
2023-05-02T11:19:29.195Z,22.64
2023-05-02T11:22:18.157Z,22.88
2023-05-02T11:24:48.082Z,22.70
2023-05-02T11:27:31.918Z,22.61
2023-05-02T11:30:01.147Z,22.76
2023-05-02T11:32:45.627Z,22.83
2023-05-02T11:35:20.341Z,22.94
2023-05-02T11:37:58.233Z,22.87
2023-05-02T11:40:27.323Z,22.98
2023-05-02T11:42:56.460Z,22.99
2023-05-02T11:45:36.298Z,23.08
2023-05-02T11:48:04.928Z,23.04
2023-05-02T11:50:33.943Z,23.16
2023-05-02T11:53:02.171Z,23.11
2023-05-02T11:55:30.385Z,22.94
2023-05-02T11:57:58.504Z,22.62
2023-05-02T12:00:29.466Z,22.49
2023-05-02T12:02:57.797Z,22.46
2023-05-02T12:05:30.633Z,22.56
2023-05-02T12:07:58.772Z,22.54
2023-05-02T12:10:35.951Z,22.42
2023-05-02T12:13:04.878Z,22.23
2023-05-02T12:15:34.087Z,22.17
2023-05-02T12:18:02.280Z,22.00
2023-05-02T12:20:30.435Z,21.90
2023-05-02T12:22:58.805Z,21.91
2023-05-02T12:25:26.956Z,22.18
2023-05-02T12:28:02.515Z,22.39
2023-05-02T12:30:31.033Z,22.61
2023-05-02T12:33:01.555Z,22.42
2023-05-02T12:35:30.596Z,22.30
2023-05-02T12:38:08.805Z,22.37
2023-05-02T12:40:37.147Z,22.32
2023-05-02T12:43:07.833Z,22.28
2023-05-02T12:45:36.308Z,22.43
2023-05-02T12:48:23.043Z,22.45
2023-05-02T12:50:51.452Z,22.35
2023-05-02T12:53:38.577Z,22.12
2023-05-02T12:56:07.121Z,22.11
2023-05-02T12:58:42.290Z,22.19
2023-05-02T13:01:10.831Z,22.41
2023-05-02T13:03:39.029Z,22.52
2023-05-02T13:06:07.459Z,22.59
2023-05-02T13:08:36.440Z,22.56
2023-05-02T13:11:04.647Z,22.39
2023-05-02T13:13:33.683Z,22.41
2023-05-02T13:16:02.065Z,22.30
2023-05-02T13:18:30.272Z,22.30
2023-05-02T13:20:58.537Z,22.31
2023-05-02T13:23:26.673Z,22.24
2023-05-02T13:25:54.851Z,22.30
2023-05-02T13:28:23.047Z,22.40
2023-05-02T13:30:51.227Z,22.48
2023-05-02T13:33:19.496Z,22.40
2023-05-02T13:35:47.613Z,22.40
2023-05-02T13:38:15.746Z,22.46
2023-05-02T13:40:43.874Z,22.55
2023-05-02T13:43:12.005Z,22.55
2023-05-02T13:45:40.147Z,22.43
2023-05-02T13:48:08.237Z,22.57
2023-05-02T13:50:38.554Z,22.62
2023-05-02T13:53:06.690Z,22.57
2023-05-02T13:55:34.959Z,22.54
2023-05-02T13:58:03.221Z,22.52
2023-05-02T14:00:31.445Z,22.59
2023-05-02T14:02:59.633Z,22.42
2023-05-02T14:05:27.920Z,22.23
2023-05-02T14:07:56.102Z,22.09
2023-05-02T14:10:24.269Z,21.77
2023-05-02T14:12:53.206Z,21.61
2023-05-02T14:15:21.894Z,21.39
2023-05-02T14:17:50.222Z,21.38
2023-05-02T14:20:18.431Z,21.39
2023-05-02T14:22:46.555Z,21.42
2023-05-02T14:25:15.789Z,21.43
2023-05-02T14:27:44.023Z,21.57
2023-05-02T14:30:12.175Z,21.67
2023-05-02T14:32:40.330Z,21.70
2023-05-02T14:35:08.583Z,21.69
2023-05-02T14:37:36.645Z,21.87
2023-05-02T14:40:05.188Z,21.98
2023-05-02T14:42:33.782Z,21.91
2023-05-02T14:45:02.485Z,21.88
2023-05-02T14:47:33.446Z,21.84
2023-05-02T14:50:03.679Z,21.92
2023-05-02T14:52:32.141Z,21.87
2023-05-02T14:55:01.079Z,21.88
2023-05-02T14:57:29.431Z,21.92
2023-05-02T14:59:57.741Z,21.90
2023-05-02T15:02:26.171Z,21.85
2023-05-02T15:04:54.349Z,21.80
2023-05-02T15:07:22.681Z,21.73
2023-05-02T15:09:50.965Z,21.60
2023-05-02T15:12:19.194Z,21.58
2023-05-02T15:14:47.321Z,21.36
2023-05-02T15:17:15.676Z,21.31
2023-05-02T15:19:43.746Z,21.25
2023-05-02T15:22:11.850Z,21.20
2023-05-02T15:24:40.306Z,21.19
2023-05-02T15:27:09.619Z,21.10
2023-05-02T15:29:37.821Z,20.99
2023-05-02T15:32:06.087Z,20.87
2023-05-02T15:34:34.389Z,20.74
2023-05-02T15:37:02.469Z,20.64
2023-05-02T15:39:30.637Z,20.48
2023-05-02T15:41:59.074Z,20.36
2023-05-02T15:44:27.232Z,20.29
2023-05-02T15:46:56.085Z,20.19
2023-05-02T15:49:25.059Z,20.07
2023-05-02T15:51:53.265Z,19.94
2023-05-02T15:54:21.364Z,19.76
2023-05-02T15:56:49.468Z,19.59
2023-05-02T15:59:17.541Z,19.52
2023-05-02T16:01:45.823Z,19.46
2023-05-02T16:04:13.990Z,19.26
2023-05-02T16:06:42.326Z,19.20
2023-05-02T16:09:10.863Z,19.09
2023-05-02T16:11:39.005Z,19.00
2023-05-02T16:14:07.238Z,18.87
2023-05-02T16:16:35.638Z,18.75
2023-05-02T16:19:03.839Z,18.63
2023-05-02T16:21:32.129Z,18.50
2023-05-02T16:24:00.289Z,18.33
2023-05-02T16:26:30.169Z,18.19
2023-05-02T16:28:58.419Z,18.04
2023-05-02T16:31:26.965Z,17.90
2023-05-02T16:33:55.297Z,17.75
2023-05-02T16:36:23.342Z,17.61
2023-05-02T16:38:51.710Z,17.44
2023-05-02T16:41:19.849Z,17.27
2023-05-02T16:43:49.379Z,17.11
2023-05-02T16:46:18.111Z,16.97
2023-05-02T16:48:46.367Z,16.82
2023-05-02T16:51:14.613Z,16.67
2023-05-02T16:53:43.983Z,16.47
2023-05-02T16:56:12.319Z,16.36
2023-05-02T16:58:40.331Z,16.23
2023-05-02T17:01:08.705Z,16.08
2023-05-02T17:03:37.128Z,15.93
2023-05-02T17:06:05.479Z,15.79
2023-05-02T17:08:33.670Z,15.64
2023-05-02T17:11:01.872Z,15.51
2023-05-02T17:13:30.063Z,15.34
2023-05-02T17:15:59.011Z,15.15
2023-05-02T17:18:28.216Z,14.96
2023-05-02T17:20:56.613Z,14.77
2023-05-02T17:23:24.883Z,14.58
2023-05-02T17:25:53.253Z,14.39
2023-05-02T17:28:21.607Z,14.20
2023-05-02T17:30:54.687Z,14.01
2023-05-02T17:33:23.010Z,13.79
2023-05-02T17:35:51.241Z,13.62
2023-05-02T17:38:19.559Z,13.46
2023-05-02T17:40:47.651Z,13.29
2023-05-02T17:43:16.805Z,13.14
2023-05-02T17:45:45.113Z,13.00
2023-05-02T17:48:13.433Z,12.90
2023-05-02T17:50:41.691Z,12.81
2023-05-02T17:53:09.821Z,12.70
2023-05-02T17:55:38.202Z,12.55
2023-05-02T17:58:06.333Z,12.46
2023-05-02T18:00:34.540Z,12.37
2023-05-02T18:03:02.859Z,12.25
2023-05-02T18:05:31.230Z,12.12
2023-05-02T18:08:01.536Z,11.94
2023-05-02T18:10:29.717Z,11.77
2023-05-02T18:12:57.850Z,11.62
2023-05-02T18:15:27.541Z,11.45
2023-05-02T18:17:56.882Z,11.33
2023-05-02T18:20:25.815Z,11.25
2023-05-02T18:22:57.361Z,11.16
2023-05-02T18:25:25.862Z,11.08
2023-05-02T18:27:54.513Z,11.04
2023-05-02T18:30:22.653Z,10.96
2023-05-02T18:32:53.565Z,10.93
2023-05-02T18:35:21.659Z,10.92
2023-05-02T18:37:49.872Z,10.89
2023-05-02T18:40:18.113Z,10.84
2023-05-02T18:42:46.212Z,10.79
2023-05-02T18:45:14.540Z,10.74
2023-05-02T18:47:44.837Z,10.71
2023-05-02T18:50:12.913Z,10.65
2023-05-02T18:52:41.043Z,10.58
2023-05-02T18:55:09.146Z,10.47
2023-05-02T18:57:37.188Z,10.39
2023-05-02T19:00:09.280Z,10.31
2023-05-02T19:02:40.823Z,10.21
2023-05-02T19:05:09.820Z,10.14
2023-05-02T19:07:38.637Z,10.07
2023-05-02T19:10:07.058Z,10.07
2023-05-02T19:12:35.262Z,10.08
2023-05-02T19:15:05.784Z,10.17
2023-05-02T19:17:33.968Z,10.24
2023-05-02T19:20:07.631Z,10.29
2023-05-02T19:22:37.215Z,10.31
2023-05-02T19:25:10.159Z,10.29
2023-05-02T19:27:39.031Z,10.28
2023-05-02T19:30:13.682Z,10.25
2023-05-02T19:32:42.188Z,10.19
2023-05-02T19:35:10.445Z,10.11
2023-05-02T19:37:38.764Z,10.06
2023-05-02T19:40:07.382Z,10.02
2023-05-02T19:42:37.503Z,10.01
2023-05-02T19:45:06.272Z,9.99
2023-05-02T19:47:34.498Z,9.95
2023-05-02T19:50:03.538Z,9.93
2023-05-02T19:52:31.589Z,9.91
2023-05-02T19:55:01.867Z,9.90
2023-05-02T19:57:30.182Z,9.89
2023-05-02T19:59:58.294Z,9.83
2023-05-02T20:02:27.101Z,9.76
2023-05-02T20:04:55.396Z,9.65
2023-05-02T20:07:23.446Z,9.57
2023-05-02T20:09:51.540Z,9.46
2023-05-02T20:12:19.875Z,9.38
2023-05-02T20:14:48.090Z,9.29
2023-05-02T20:17:16.155Z,9.24
2023-05-02T20:19:45.925Z,9.16
2023-05-02T20:22:14.052Z,9.08
2023-05-02T20:24:42.080Z,9.03
2023-05-02T20:27:10.233Z,8.98
2023-05-02T20:29:38.327Z,8.94
2023-05-02T20:32:06.521Z,8.88
2023-05-02T20:34:35.782Z,8.77
2023-05-02T20:37:05.481Z,8.71
2023-05-02T20:39:33.608Z,8.62
2023-05-02T20:42:01.852Z,8.55
2023-05-02T20:44:33.546Z,8.48
2023-05-02T20:47:01.684Z,8.38
2023-05-02T20:49:33.336Z,8.29
2023-05-02T20:52:05.514Z,8.19
2023-05-02T20:54:33.722Z,8.11
2023-05-02T20:57:03.472Z,8.02
2023-05-02T20:59:32.086Z,7.96
2023-05-02T21:02:00.240Z,7.89
2023-05-02T21:04:28.463Z,7.80
2023-05-02T21:06:56.984Z,7.74
2023-05-02T21:09:25.300Z,7.65
2023-05-02T21:11:53.447Z,7.56
2023-05-02T21:14:23.759Z,7.47
2023-05-02T21:16:52.759Z,7.37
2023-05-02T21:19:20.888Z,7.29
2023-05-02T21:21:48.973Z,7.20
2023-05-02T21:24:17.094Z,7.10
2023-05-02T21:26:45.466Z,7.02
2023-05-02T21:29:15.099Z,6.94
2023-05-02T21:31:43.267Z,6.86
2023-05-02T21:34:11.502Z,6.80
2023-05-02T21:36:39.615Z,6.72
2023-05-02T21:39:07.878Z,6.63
2023-05-02T21:41:35.978Z,6.54
2023-05-02T21:44:04.117Z,6.46
2023-05-02T21:46:33.317Z,6.41
2023-05-02T21:49:01.508Z,6.36
2023-05-02T21:51:29.626Z,6.34
2023-05-02T21:53:57.665Z,6.34
2023-05-02T21:56:25.927Z,6.34
2023-05-02T21:58:54.002Z,6.34
2023-05-02T22:01:22.243Z,6.33
2023-05-02T22:03:50.510Z,6.31
2023-05-02T22:06:18.585Z,6.30
2023-05-02T22:08:46.653Z,6.29
2023-05-02T22:11:15.634Z,6.29
2023-05-02T22:13:43.810Z,6.28
2023-05-02T22:16:12.150Z,6.28
2023-05-02T22:18:40.328Z,6.27
2023-05-02T22:21:10.054Z,6.23
2023-05-02T22:23:38.179Z,6.16
2023-05-02T22:26:06.487Z,6.10
2023-05-02T22:28:34.668Z,6.04
2023-05-02T22:31:03.360Z,5.98
2023-05-02T22:33:31.613Z,5.91
2023-05-02T22:35:59.674Z,5.84
2023-05-02T22:38:27.771Z,5.77
2023-05-02T22:40:55.947Z,5.69
2023-05-02T22:43:24.100Z,5.60
2023-05-02T22:45:52.373Z,5.53
2023-05-02T22:48:20.565Z,5.47
2023-05-02T22:50:48.926Z,5.43
2023-05-02T22:53:17.077Z,5.37
2023-05-02T22:55:45.210Z,5.30
2023-05-02T22:58:13.389Z,5.23
2023-05-02T23:00:41.587Z,5.15
2023-05-02T23:03:11.156Z,5.07
2023-05-02T23:05:39.335Z,5.00
2023-05-02T23:08:07.492Z,4.93
2023-05-02T23:10:35.746Z,4.86
2023-05-02T23:13:03.970Z,4.79
2023-05-02T23:15:32.117Z,4.72
2023-05-02T23:18:00.385Z,4.65
2023-05-02T23:20:28.727Z,4.59
2023-05-02T23:22:57.358Z,4.52
2023-05-02T23:25:27.133Z,4.45
2023-05-02T23:27:55.451Z,4.39
2023-05-02T23:30:23.643Z,4.35
2023-05-02T23:32:51.849Z,4.30
2023-05-02T23:35:20.345Z,4.24
2023-05-02T23:37:49.320Z,4.20
2023-05-02T23:40:17.437Z,4.13
2023-05-02T23:42:45.982Z,4.08
2023-05-02T23:45:14.044Z,4.07
2023-05-02T23:47:42.287Z,4.03
2023-05-02T23:50:10.942Z,3.99
2023-05-02T23:52:39.084Z,3.95
2023-05-02T23:55:10.642Z,3.90
2023-05-02T23:57:39.342Z,3.86
